Time;durP1;ratioP1;P1;durP2;ratioP2;P2;SDS_P1;SDS_P2;PMS_P1;PMS_P2;Temp;Humidity;BMP_temperature;BMP_pressure;BME280_temperature;BME280_humidity;BME280_pressure;Samples;Min_cycle;Max_cycle;Signal;HPM_P1;HPM_P2
2022/05/08 00:00:37;;;;;;;24.60;4.00;;;;;;;;;;5047213;28;20033;-76
2022/05/08 00:03:03;;;;;;;18.90;4.55;;;;;;;;;;5034502;28;20037;-76
2022/05/08 00:05:29;;;;;;;20.90;3.90;;;;;;;;;;5050223;28;20564;-75
2022/05/08 00:07:55;;;;;;;29.45;4.93;;;;;;;;;;5041070;28;20478;-75
2022/05/08 00:10:21;;;;;;;18.02;4.40;;;;;;;;;;5037651;28;20056;-75
2022/05/08 00:12:47;;;;;;;22.13;4.25;;;;;;;;;;5047969;28;20037;-76
2022/05/08 00:15:13;;;;;;;18.75;3.72;;;;;;;;;;5050900;28;20040;-76
2022/05/08 00:17:39;;;;;;;17.90;2.97;;;;;;;;;;5049617;28;20082;-76
2022/05/08 00:20:07;;;;;;;23.42;4.38;;;;;;;;;;5048811;28;20102;-76
2022/05/08 00:22:33;;;;;;;20.05;2.92;;;;;;;;;;5042985;28;20040;-75
2022/05/08 00:25:02;;;;;;;23.10;4.40;;;;;;;;;;5050646;28;20040;-75
2022/05/08 00:27:28;;;;;;;34.33;5.78;;;;;;;;;;5042592;28;20084;-76
2022/05/08 00:29:54;;;;;;;20.05;4.13;;;;;;;;;;5052063;28;20049;-75
2022/05/08 00:32:21;;;;;;;23.40;4.32;;;;;;;;;;5049224;28;20044;-75
2022/05/08 00:34:47;;;;;;;26.13;4.43;;;;;;;;;;5050199;28;20025;-76
2022/05/08 00:37:13;;;;;;;28.27;3.97;;;;;;;;;;5048586;28;20025;-76
2022/05/08 00:39:39;;;;;;;23.63;5.10;;;;;;;;;;5050868;28;20075;-76
2022/05/08 00:42:05;;;;;;;18.95;3.47;;;;;;;;;;5049967;28;20041;-76
2022/05/08 00:44:31;;;;;;;20.55;4.32;;;;;;;;;;5029375;28;20033;-75
2022/05/08 00:46:58;;;;;;;19.88;3.75;;;;;;;;;;5035051;28;20052;-75
2022/05/08 00:49:24;;;;;;;23.73;4.15;;;;;;;;;;5048157;28;20056;-75
2022/05/08 00:51:50;;;;;;;17.50;3.78;;;;;;;;;;5046132;28;20087;-76
2022/05/08 00:54:16;;;;;;;17.13;4.40;;;;;;;;;;5054181;28;20116;-76
2022/05/08 00:56:43;;;;;;;20.67;4.15;;;;;;;;;;5053467;28;20429;-75
2022/05/08 00:59:09;;;;;;;17.20;3.42;;;;;;;;;;5045400;28;20029;-75
2022/05/08 01:01:35;;;;;;;27.30;4.35;;;;;;;;;;5033586;28;20029;-75
2022/05/08 01:04:01;;;;;;;24.83;4.60;;;;;;;;;;5046057;28;20029;-75
2022/05/08 01:06:30;;;;;;;18.35;3.63;;;;;;;;;;5044241;28;20091;-76
2022/05/08 01:08:56;;;;;;;23.35;3.70;;;;;;;;;;5026318;28;20369;-76
2022/05/08 01:11:22;;;;;;;19.42;3.58;;;;;;;;;;5023009;28;20436;-78
2022/05/08 01:13:49;;;;;;;23.27;3.67;;;;;;;;;;5021966;28;20029;-78
2022/05/08 01:16:16;;;;;;;20.60;3.30;;;;;;;;;;5049454;28;20040;-76
2022/05/08 01:18:43;;;;;;;19.50;3.90;;;;;;;;;;5049856;28;20028;-76
2022/05/08 01:21:10;;;;;;;21.20;4.05;;;;;;;;;;5030103;28;20032;-76
2022/05/08 01:23:37;;;;;;;19.80;4.00;;;;;;;;;;5047930;28;20060;-76
2022/05/08 01:26:03;;;;;;;19.92;2.95;;;;;;;;;;5045580;28;20504;-76
2022/05/08 01:28:29;;;;;;;19.55;3.72;;;;;;;;;;5041253;28;20060;-76
2022/05/08 01:30:55;;;;;;;21.67;3.60;;;;;;;;;;5031897;28;20033;-76
2022/05/08 01:33:22;;;;;;;17.80;3.53;;;;;;;;;;5025735;28;20046;-76
2022/05/08 01:35:49;;;;;;;15.80;3.38;;;;;;;;;;5018137;28;20386;-76
2022/05/08 01:38:16;;;;;;;25.65;4.80;;;;;;;;;;5048646;28;20033;-76
2022/05/08 01:40:45;;;;;;;20.60;3.47;;;;;;;;;;5051075;28;20025;-76
2022/05/08 01:43:12;;;;;;;19.98;3.92;;;;;;;;;;5047147;28;20041;-76
2022/05/08 01:45:38;;;;;;;24.00;3.80;;;;;;;;;;5046028;28;20029;-76
2022/05/08 01:48:23;;;;;;;19.65;3.60;;;;;;;;;;5047666;28;20132;-76
2022/05/08 01:50:53;;;;;;;16.48;3.05;;;;;;;;;;5043474;28;20033;-77
2022/05/08 01:53:23;;;;;;;17.75;3.20;;;;;;;;;;5043351;28;20044;-77
2022/05/08 01:55:54;;;;;;;17.85;3.60;;;;;;;;;;5049414;28;20040;-77
2022/05/08 01:58:20;;;;;;;20.13;5.35;;;;;;;;;;5039116;28;20040;-77
2022/05/08 02:00:46;;;;;;;17.73;4.43;;;;;;;;;;5042843;28;20020;-78
2022/05/08 02:03:13;;;;;;;25.00;4.25;;;;;;;;;;5045605;28;20530;-78
2022/05/08 02:05:40;;;;;;;24.40;4.35;;;;;;;;;;5048531;28;20029;-78
2022/05/08 02:08:06;;;;;;;19.38;3.50;;;;;;;;;;5045168;28;20074;-78
2022/05/08 02:10:32;;;;;;;22.40;4.78;;;;;;;;;;5049301;28;20397;-78
2022/05/08 02:12:58;;;;;;;24.58;4.75;;;;;;;;;;5044870;28;20036;-78
2022/05/08 02:15:29;;;;;;;12.68;3.00;;;;;;;;;;5042892;28;20103;-78
2022/05/08 02:17:57;;;;;;;16.00;3.80;;;;;;;;;;5043597;28;20056;-77
2022/05/08 02:20:23;;;;;;;26.67;5.88;;;;;;;;;;5031737;28;20033;-77
2022/05/08 02:22:50;;;;;;;23.08;3.65;;;;;;;;;;5045843;28;20039;-77
2022/05/08 02:25:16;;;;;;;20.17;5.15;;;;;;;;;;5049939;28;20029;-78
2022/05/08 02:27:44;;;;;;;20.08;4.00;;;;;;;;;;5044407;28;20385;-77
2022/05/08 02:30:11;;;;;;;21.60;3.53;;;;;;;;;;5033426;28;20500;-77
2022/05/08 02:32:38;;;;;;;18.52;4.40;;;;;;;;;;5057234;28;20513;-77
2022/05/08 02:35:09;;;;;;;15.85;4.00;;;;;;;;;;5047777;28;20033;-77
2022/05/08 02:37:35;;;;;;;21.17;3.27;;;;;;;;;;5043409;28;20435;-77
2022/05/08 02:40:02;;;;;;;16.42;3.38;;;;;;;;;;5032937;28;20068;-78
2022/05/08 02:42:28;;;;;;;22.05;4.47;;;;;;;;;;5034739;28;20119;-78
2022/05/08 02:44:54;;;;;;;18.65;2.92;;;;;;;;;;5031762;28;20111;-77
2022/05/08 02:47:20;;;;;;;16.30;3.30;;;;;;;;;;5063897;28;20452;-77
2022/05/08 02:49:46;;;;;;;17.45;3.08;;;;;;;;;;5049937;28;20433;-77
2022/05/08 02:52:12;;;;;;;12.40;2.70;;;;;;;;;;5052462;28;20031;-78
2022/05/08 02:54:38;;;;;;;17.73;3.60;;;;;;;;;;5039672;28;20057;-78
2022/05/08 02:59:50;;;;;;;19.77;3.45;;;;;;;;;;5045319;28;20124;-77
2022/05/08 03:02:16;;;;;;;21.35;3.17;;;;;;;;;;5053312;28;20116;-77
2022/05/08 03:04:42;;;;;;;16.92;2.58;;;;;;;;;;5051931;28;20029;-77
2022/05/08 03:07:08;;;;;;;15.50;2.97;;;;;;;;;;5030033;28;20039;-77
2022/05/08 03:09:35;;;;;;;18.80;3.75;;;;;;;;;;5046282;28;20511;-77
2022/05/08 03:12:01;;;;;;;15.27;4.35;;;;;;;;;;5026692;28;20052;-77
2022/05/08 03:14:27;;;;;;;18.40;4.00;;;;;;;;;;5049395;28;20045;-77
2022/05/08 03:16:53;;;;;;;16.70;3.75;;;;;;;;;;5041633;28;20099;-77
2022/05/08 03:19:21;;;;;;;15.70;3.42;;;;;;;;;;5049388;28;20393;-77
2022/05/08 03:21:51;;;;;;;16.95;3.22;;;;;;;;;;5052908;28;20033;-77
2022/05/08 03:24:17;;;;;;;19.60;3.35;;;;;;;;;;5043444;28;20478;-77
2022/05/08 03:26:43;;;;;;;17.20;3.22;;;;;;;;;;5052340;28;20033;-78
2022/05/08 03:29:09;;;;;;;13.75;4.18;;;;;;;;;;5039580;28;20045;-77
2022/05/08 03:31:35;;;;;;;16.50;5.15;;;;;;;;;;5060238;28;20033;-78
2022/05/08 03:34:01;;;;;;;18.25;3.33;;;;;;;;;;5051898;28;20060;-77
2022/05/08 03:36:27;;;;;;;13.10;2.45;;;;;;;;;;5039020;28;20030;-77
2022/05/08 03:38:53;;;;;;;16.95;3.13;;;;;;;;;;5038671;28;20858;-77
2022/05/08 03:41:19;;;;;;;21.52;3.58;;;;;;;;;;5050165;28;20060;-77
2022/05/08 03:43:46;;;;;;;12.65;2.55;;;;;;;;;;5032868;28;20036;-77
2022/05/08 03:46:15;;;;;;;12.95;2.92;;;;;;;;;;5059756;28;20025;-77
2022/05/08 03:48:42;;;;;;;14.30;2.72;;;;;;;;;;5051404;28;20021;-77
2022/05/08 03:51:08;;;;;;;13.63;2.25;;;;;;;;;;5047813;28;20064;-77
2022/05/08 03:53:34;;;;;;;10.10;2.08;;;;;;;;;;5048840;28;20415;-77
2022/05/08 03:56:01;;;;;;;9.70;2.17;;;;;;;;;;5042651;28;20033;-77
2022/05/08 03:58:27;;;;;;;12.20;2.22;;;;;;;;;;5035882;28;20064;-76
2022/05/08 04:00:53;;;;;;;20.80;3.38;;;;;;;;;;5043494;28;20037;-77
2022/05/08 04:03:20;;;;;;;12.10;2.33;;;;;;;;;;5052188;28;20044;-77
2022/05/08 04:05:46;;;;;;;13.55;2.47;;;;;;;;;;5033200;28;20043;-77
2022/05/08 04:08:12;;;;;;;19.60;2.70;;;;;;;;;;5048541;28;20063;-77
2022/05/08 04:10:39;;;;;;;16.77;2.15;;;;;;;;;;5048660;28;20080;-77
2022/05/08 04:13:05;;;;;;;11.40;1.98;;;;;;;;;;5051453;28;20025;-77
2022/05/08 04:18:16;;;;;;;11.23;2.33;;;;;;;;;;5050978;28;20105;-77
2022/05/08 04:20:42;;;;;;;13.25;2.22;;;;;;;;;;5040601;28;20029;-77
2022/05/08 04:25:53;;;;;;;16.95;3.25;;;;;;;;;;5050822;28;20051;-77
2022/05/08 04:28:20;;;;;;;16.00;2.40;;;;;;;;;;5050991;28;20493;-77
2022/05/08 04:30:47;;;;;;;9.30;2.53;;;;;;;;;;5048702;28;20060;-76
2022/05/08 04:33:13;;;;;;;8.05;1.98;;;;;;;;;;5032091;28;20548;-77
2022/05/08 04:35:39;;;;;;;12.00;2.42;;;;;;;;;;5038350;28;20401;-77
2022/05/08 04:38:05;;;;;;;8.40;2.30;;;;;;;;;;5050051;28;20547;-77
2022/05/08 04:40:31;;;;;;;13.73;2.00;;;;;;;;;;5050751;28;20055;-77
2022/05/08 04:42:57;;;;;;;11.10;2.35;;;;;;;;;;5029438;28;20029;-76
2022/05/08 04:45:23;;;;;;;9.25;2.00;;;;;;;;;;5055505;28;20469;-77
2022/05/08 04:47:49;;;;;;;12.40;2.00;;;;;;;;;;5043483;28;20033;-80
2022/05/08 04:50:15;;;;;;;16.00;2.28;;;;;;;;;;5043838;28;20104;-79
2022/05/08 04:52:41;;;;;;;8.65;2.10;;;;;;;;;;5047609;28;20079;-77
2022/05/08 04:55:07;;;;;;;15.63;4.32;;;;;;;;;;5042435;28;20086;-78
2022/05/08 04:57:33;;;;;;;14.52;5.57;;;;;;;;;;5054283;28;20025;-81
2022/05/08 05:00:00;;;;;;;33.50;13.18;;;;;;;;;;5041587;28;20044;-78
2022/05/08 05:02:27;;;;;;;12.52;2.42;;;;;;;;;;5058739;28;20082;-79
2022/05/08 05:04:53;;;;;;;12.02;2.75;;;;;;;;;;5052667;28;20584;-78
2022/05/08 05:07:19;;;;;;;8.88;1.85;;;;;;;;;;5049257;28;20029;-79
2022/05/08 05:09:45;;;;;;;9.40;1.73;;;;;;;;;;5057334;28;20056;-80
2022/05/08 05:12:11;;;;;;;8.13;1.60;;;;;;;;;;5052789;28;20037;-80
2022/05/08 05:14:37;;;;;;;13.45;1.88;;;;;;;;;;5051659;28;20159;-78
2022/05/08 05:17:05;;;;;;;8.27;1.67;;;;;;;;;;5056305;28;20601;-80
2022/05/08 05:19:31;;;;;;;7.60;1.70;;;;;;;;;;5046519;28;20036;-79
2022/05/08 05:21:57;;;;;;;8.65;1.88;;;;;;;;;;5048859;28;20026;-79
2022/05/08 05:24:23;;;;;;;11.27;1.65;;;;;;;;;;5049907;28;20033;-79
2022/05/08 05:26:49;;;;;;;13.70;1.85;;;;;;;;;;5048388;28;20029;-79
2022/05/08 05:29:16;;;;;;;6.20;1.40;;;;;;;;;;5033197;28;20087;-79
2022/05/08 05:31:42;;;;;;;16.23;6.95;;;;;;;;;;5040735;28;20044;-82
2022/05/08 05:34:08;;;;;;;39.63;17.98;;;;;;;;;;5059991;28;20068;-80
2022/05/08 05:36:34;;;;;;;16.08;4.93;;;;;;;;;;5046702;28;20025;-78
2022/05/08 05:39:01;;;;;;;11.90;2.78;;;;;;;;;;5049281;28;20041;-76
2022/05/08 05:41:27;;;;;;;9.98;2.17;;;;;;;;;;5054092;28;20040;-80
2022/05/08 05:43:53;;;;;;;11.30;3.10;;;;;;;;;;5045956;28;20030;-81
2022/05/08 05:49:04;;;;;;;8.00;2.03;;;;;;;;;;5046613;28;20846;-79
2022/05/08 05:51:30;;;;;;;9.02;1.73;;;;;;;;;;5054098;28;20029;-79
2022/05/08 05:53:56;;;;;;;12.38;2.47;;;;;;;;;;5048595;28;20071;-79
2022/05/08 05:56:22;;;;;;;15.95;2.50;;;;;;;;;;5050536;28;20053;-78
2022/05/08 05:58:48;;;;;;;10.13;1.73;;;;;;;;;;5045640;28;20036;-78
2022/05/08 06:01:15;;;;;;;11.88;1.60;;;;;;;;;;5048952;28;20033;-76
2022/05/08 06:03:41;;;;;;;8.07;1.55;;;;;;;;;;5039810;28;20033;-75
2022/05/08 06:06:07;;;;;;;18.65;7.28;;;;;;;;;;5042893;28;20119;-75
2022/05/08 06:08:33;;;;;;;17.88;4.40;;;;;;;;;;5046154;28;20120;-78
2022/05/08 06:10:59;;;;;;;12.55;1.95;;;;;;;;;;5036297;28;20393;-76
2022/05/08 06:13:25;;;;;;;10.23;2.08;;;;;;;;;;5018838;28;20043;-78
2022/05/08 06:15:51;;;;;;;7.43;1.50;;;;;;;;;;5056077;28;20032;-78
2022/05/08 06:18:18;;;;;;;6.47;1.70;;;;;;;;;;5048892;28;20036;-77
2022/05/08 06:20:44;;;;;;;11.88;2.67;;;;;;;;;;5053563;28;20117;-77
2022/05/08 06:23:10;;;;;;;10.23;1.60;;;;;;;;;;5044905;28;20040;-78
2022/05/08 06:25:41;;;;;;;10.00;1.40;;;;;;;;;;5051633;28;20029;-78
2022/05/08 06:28:07;;;;;;;8.48;2.00;;;;;;;;;;5025265;28;20159;-78
2022/05/08 06:30:33;;;;;;;5.07;1.60;;;;;;;;;;5050801;28;20107;-77
2022/05/08 06:32:59;;;;;;;8.25;1.65;;;;;;;;;;5053003;28;20068;-78
2022/05/08 06:35:25;;;;;;;7.60;1.75;;;;;;;;;;5052499;28;20534;-78
2022/05/08 06:37:52;;;;;;;11.98;4.07;;;;;;;;;;5052861;28;20037;-76
2022/05/08 06:40:18;;;;;;;9.57;3.78;;;;;;;;;;5049193;28;20061;-75
2022/05/08 06:42:44;;;;;;;8.07;1.52;;;;;;;;;;5052103;28;20025;-78
2022/05/08 06:45:10;;;;;;;10.93;2.05;;;;;;;;;;5053714;28;20032;-79
2022/05/08 06:47:36;;;;;;;9.73;2.38;;;;;;;;;;5053977;28;20115;-79
2022/05/08 06:50:03;;;;;;;11.02;2.55;;;;;;;;;;5044785;28;20041;-78
2022/05/08 06:52:29;;;;;;;7.70;1.63;;;;;;;;;;5052284;28;20025;-76
2022/05/08 06:54:55;;;;;;;9.45;1.95;;;;;;;;;;5052184;28;20039;-76
2022/05/08 06:57:21;;;;;;;8.73;1.55;;;;;;;;;;5051994;28;20133;-76
2022/05/08 07:02:32;;;;;;;14.05;1.83;;;;;;;;;;5051832;28;20112;-77
2022/05/08 07:04:58;;;;;;;12.20;1.80;;;;;;;;;;5041698;28;20045;-76
2022/05/08 07:07:24;;;;;;;8.40;1.20;;;;;;;;;;5034645;28;20474;-79
2022/05/08 07:09:51;;;;;;;7.68;1.50;;;;;;;;;;5043842;28;20040;-78
2022/05/08 07:12:17;;;;;;;7.80;1.50;;;;;;;;;;5033256;28;20056;-77
2022/05/08 07:14:43;;;;;;;8.90;1.92;;;;;;;;;;5052469;28;20075;-79
2022/05/08 07:17:10;;;;;;;8.68;1.60;;;;;;;;;;5056450;28;20043;-79
2022/05/08 07:19:36;;;;;;;11.20;1.83;;;;;;;;;;5049405;28;20051;-77
2022/05/08 07:22:02;;;;;;;11.10;1.70;;;;;;;;;;5047706;28;20132;-80
2022/05/08 07:24:28;;;;;;;13.27;2.58;;;;;;;;;;5051180;28;20037;-78
2022/05/08 07:26:54;;;;;;;9.57;1.73;;;;;;;;;;5026192;28;20345;-78
2022/05/08 07:29:20;;;;;;;10.45;1.80;;;;;;;;;;5045777;28;20567;-77
2022/05/08 07:31:46;;;;;;;10.80;1.80;;;;;;;;;;5048846;28;20090;-77
2022/05/08 07:36:57;;;;;;;14.80;5.43;;;;;;;;;;5043126;28;20036;-74
2022/05/08 07:39:23;;;;;;;11.80;1.75;;;;;;;;;;5050737;28;20029;-77
2022/05/08 07:41:49;;;;;;;11.93;1.73;;;;;;;;;;5049096;28;20045;-78
2022/05/08 07:44:15;;;;;;;15.10;1.63;;;;;;;;;;5047995;28;20112;-77
2022/05/08 07:46:41;;;;;;;7.43;1.50;;;;;;;;;;5038089;28;20025;-77
2022/05/08 07:49:08;;;;;;;10.55;1.80;;;;;;;;;;5040580;28;20045;-77
2022/05/08 07:51:34;;;;;;;11.52;2.03;;;;;;;;;;5032950;28;20417;-77
2022/05/08 07:54:00;;;;;;;7.60;1.35;;;;;;;;;;5050333;28;21701;-78
2022/05/08 07:56:28;;;;;;;8.63;1.70;;;;;;;;;;5048420;28;20108;-76
2022/05/08 07:58:54;;;;;;;9.48;2.00;;;;;;;;;;5051064;28;20033;-76
2022/05/08 08:01:20;;;;;;;8.38;1.60;;;;;;;;;;5055188;28;20056;-77
2022/05/08 08:03:46;;;;;;;16.83;5.38;;;;;;;;;;5046828;28;20371;-77
2022/05/08 08:06:12;;;;;;;9.55;3.58;;;;;;;;;;5051984;28;20057;-77
2022/05/08 08:08:39;;;;;;;10.45;1.50;;;;;;;;;;5049451;28;20044;-76
2022/05/08 08:11:05;;;;;;;9.57;2.78;;;;;;;;;;5050295;28;20063;-81
2022/05/08 08:13:32;;;;;;;8.20;1.85;;;;;;;;;;5053349;28;20028;-81
2022/05/08 08:15:59;;;;;;;8.15;1.60;;;;;;;;;;5049190;28;20072;-78
2022/05/08 08:18:25;;;;;;;11.88;2.28;;;;;;;;;;5050013;28;20405;-78
2022/05/08 08:20:52;;;;;;;10.93;1.98;;;;;;;;;;5044643;28;20037;-77
2022/05/08 08:23:18;;;;;;;8.80;1.85;;;;;;;;;;5048047;28;20053;-78
2022/05/08 08:25:44;;;;;;;9.15;1.52;;;;;;;;;;5054221;28;20025;-78
2022/05/08 08:28:11;;;;;;;6.07;1.48;;;;;;;;;;5054703;28;20184;-78
2022/05/08 08:30:37;;;;;;;12.73;1.77;;;;;;;;;;5049707;28;20472;-78
2022/05/08 08:33:03;;;;;;;11.38;1.45;;;;;;;;;;5045526;28;20382;-77
2022/05/08 08:35:30;;;;;;;13.15;1.90;;;;;;;;;;5044624;28;20034;-77
2022/05/08 08:37:56;;;;;;;11.20;1.60;;;;;;;;;;5047082;28;20036;-75
2022/05/08 08:40:22;;;;;;;11.07;1.67;;;;;;;;;;5045376;28;20112;-73
2022/05/08 08:42:49;;;;;;;15.05;2.33;;;;;;;;;;5022351;28;20037;-73
2022/05/08 08:48:09;;;;;;;12.25;1.85;;;;;;;;;;5046214;28;20039;-73
2022/05/08 08:50:35;;;;;;;8.18;1.45;;;;;;;;;;5046437;28;20034;-72
2022/05/08 08:53:03;;;;;;;6.90;1.50;;;;;;;;;;5045687;28;20748;-74
2022/05/08 08:55:32;;;;;;;7.10;1.73;;;;;;;;;;5047432;28;20032;-75
2022/05/08 08:57:58;;;;;;;7.63;1.25;;;;;;;;;;5050386;28;20051;-74
2022/05/08 09:00:24;;;;;;;10.73;1.80;;;;;;;;;;5050741;28;20113;-74
2022/05/08 09:02:53;;;;;;;7.82;1.73;;;;;;;;;;5050534;28;20021;-75
2022/05/08 09:05:19;;;;;;;7.78;1.50;;;;;;;;;;5050329;28;20082;-75
2022/05/08 09:07:46;;;;;;;8.13;1.95;;;;;;;;;;5050308;28;20377;-74
2022/05/08 09:10:14;;;;;;;14.23;2.38;;;;;;;;;;5025408;28;20061;-74
2022/05/08 09:12:44;;;;;;;5.65;1.50;;;;;;;;;;5035262;28;20233;-74
2022/05/08 09:15:17;;;;;;;13.57;2.05;;;;;;;;;;5050566;28;20059;-74
2022/05/08 09:17:44;;;;;;;12.48;1.70;;;;;;;;;;5032782;28;20413;-74
2022/05/08 09:20:32;;;;;;;7.53;1.73;;;;;;;;;;5044025;28;20041;-74
2022/05/08 09:23:00;;;;;;;10.15;1.65;;;;;;;;;;5033263;28;20041;-74
2022/05/08 09:25:45;;;;;;;10.82;1.70;;;;;;;;;;5040115;28;20056;-74
2022/05/08 09:28:13;;;;;;;7.85;1.67;;;;;;;;;;5050694;28;20072;-74
2022/05/08 09:30:53;;;;;;;8.98;1.77;;;;;;;;;;5051019;28;20041;-74
2022/05/08 09:33:23;;;;;;;12.68;2.15;;;;;;;;;;5040282;28;20126;-74
2022/05/08 09:35:49;;;;;;;10.25;1.95;;;;;;;;;;5043376;28;20033;-74
2022/05/08 09:38:15;;;;;;;9.30;1.85;;;;;;;;;;5045523;28;20518;-74
2022/05/08 09:40:41;;;;;;;7.55;1.55;;;;;;;;;;5051256;28;20029;-74
2022/05/08 09:43:26;;;;;;;8.15;1.25;;;;;;;;;;5041226;28;20532;-75
2022/05/08 09:46:02;;;;;;;7.18;1.50;;;;;;;;;;5047593;28;20128;-73
2022/05/08 09:48:29;;;;;;;6.07;1.60;;;;;;;;;;5032928;28;20033;-74
2022/05/08 09:50:58;;;;;;;5.55;1.65;;;;;;;;;;5049353;28;20040;-74
2022/05/08 09:53:25;;;;;;;7.55;2.30;;;;;;;;;;5048669;28;20040;-74
2022/05/08 09:55:52;;;;;;;8.48;2.00;;;;;;;;;;5042912;28;20053;-74
2022/05/08 09:58:18;;;;;;;10.73;1.70;;;;;;;;;;5038632;28;20026;-75
2022/05/08 10:00:45;;;;;;;7.53;1.60;;;;;;;;;;5048292;28;20087;-74
2022/05/08 10:03:11;;;;;;;8.98;2.20;;;;;;;;;;5053511;28;20033;-74
2022/05/08 10:05:38;;;;;;;9.27;1.50;;;;;;;;;;5054191;28;20056;-76
2022/05/08 10:08:05;;;;;;;10.10;2.15;;;;;;;;;;5045071;28;20037;-75
2022/05/08 10:16:45;;;;;;;12.02;2.58;;;;;;;;;;5057050;28;20675;-75
2022/05/08 10:19:23;;;;;;;12.40;1.63;;;;;;;;;;5053161;28;20493;-75
2022/05/08 10:21:55;;;;;;;12.75;2.08;;;;;;;;;;5053365;28;20054;-75
2022/05/08 10:24:28;;;;;;;9.20;1.65;;;;;;;;;;5047306;28;20388;-75
2022/05/08 10:27:11;;;;;;;7.38;1.48;;;;;;;;;;5054025;28;20473;-75
2022/05/08 10:29:38;;;;;;;6.82;2.58;;;;;;;;;;5052334;28;20037;-75
2022/05/08 10:32:09;;;;;;;8.13;2.10;;;;;;;;;;5052619;28;20033;-75
2022/05/08 10:34:36;;;;;;;12.35;2.72;;;;;;;;;;5053051;28;20047;-75
2022/05/08 10:37:14;;;;;;;10.50;2.03;;;;;;;;;;5053775;28;20044;-75
2022/05/08 10:39:43;;;;;;;10.43;1.80;;;;;;;;;;5034963;28;20428;-74
2022/05/08 10:42:28;;;;;;;10.38;2.10;;;;;;;;;;5043400;28;20024;-75
2022/05/08 10:44:54;;;;;;;12.98;1.65;;;;;;;;;;5053471;28;20040;-75
2022/05/08 10:47:43;;;;;;;8.80;1.98;;;;;;;;;;5053629;28;20025;-75
2022/05/08 10:50:09;;;;;;;8.63;1.60;;;;;;;;;;5045416;28;20392;-75
2022/05/08 10:52:42;;;;;;;6.50;1.50;;;;;;;;;;5050891;28;20097;-75
2022/05/08 10:55:20;;;;;;;10.23;1.98;;;;;;;;;;5038228;28;20485;-75
2022/05/08 10:57:47;;;;;;;9.40;2.47;;;;;;;;;;5053634;28;20051;-75
2022/05/08 11:00:18;;;;;;;10.57;2.30;;;;;;;;;;5036797;28;20432;-75
2022/05/08 11:02:52;;;;;;;7.32;1.70;;;;;;;;;;5052073;28;20477;-74
2022/05/08 11:05:25;;;;;;;9.45;2.85;;;;;;;;;;5048948;28;20036;-73
2022/05/08 11:07:53;;;;;;;10.27;2.05;;;;;;;;;;5031722;28;20033;-75
2022/05/08 11:10:23;;;;;;;13.68;2.28;;;;;;;;;;5046356;28;20052;-74
2022/05/08 11:12:56;;;;;;;10.57;1.77;;;;;;;;;;5042836;28;20017;-74
2022/05/08 11:15:22;;;;;;;8.57;2.53;;;;;;;;;;5052174;28;20106;-74
2022/05/08 11:18:02;;;;;;;9.18;1.50;;;;;;;;;;5050121;28;20457;-73
2022/05/08 11:20:28;;;;;;;10.32;1.95;;;;;;;;;;5047605;28;20083;-74
2022/05/08 11:22:56;;;;;;;7.07;1.65;;;;;;;;;;5047722;28;20091;-74
2022/05/08 11:25:22;;;;;;;6.93;1.88;;;;;;;;;;5048351;28;20025;-74
2022/05/08 11:27:52;;;;;;;7.07;1.70;;;;;;;;;;5040053;28;20113;-74
2022/05/08 11:30:26;;;;;;;8.13;1.70;;;;;;;;;;5040553;28;20044;-73
2022/05/08 11:38:22;;;;;;;16.63;4.63;;;;;;;;;;5041682;28;20096;-76
2022/05/08 11:40:49;;;;;;;13.55;3.05;;;;;;;;;;5046290;28;20466;-77
2022/05/08 11:43:34;;;;;;;12.90;2.80;;;;;;;;;;5047075;28;20486;-77
2022/05/08 11:46:00;;;;;;;8.00;1.73;;;;;;;;;;5051846;28;20489;-74
2022/05/08 11:48:40;;;;;;;9.27;1.55;;;;;;;;;;5047798;28;20048;-75
2022/05/08 11:51:07;;;;;;;9.70;1.95;;;;;;;;;;5032788;28;20060;-77
2022/05/08 11:53:47;;;;;;;12.15;2.05;;;;;;;;;;5050316;28;20123;-77
2022/05/08 11:56:22;;;;;;;7.60;1.83;;;;;;;;;;5052489;28;20132;-76
2022/05/08 11:58:48;;;;;;;9.82;1.85;;;;;;;;;;5028360;28;20051;-76
2022/05/08 12:01:34;;;;;;;10.38;1.92;;;;;;;;;;5035770;28;20035;-76
2022/05/08 12:04:18;;;;;;;11.65;2.53;;;;;;;;;;5046821;28;20029;-76
2022/05/08 12:07:03;;;;;;;10.60;1.98;;;;;;;;;;5017750;28;20288;-76
2022/05/08 12:09:30;;;;;;;10.23;3.35;;;;;;;;;;5049502;28;20037;-72
2022/05/08 12:11:57;;;;;;;7.70;1.70;;;;;;;;;;5045505;28;20064;-75
2022/05/08 12:14:30;;;;;;;6.15;1.60;;;;;;;;;;5044530;28;20076;-73
2022/05/08 12:17:01;;;;;;;11.73;1.90;;;;;;;;;;5051299;28;20479;-74
2022/05/08 12:19:27;;;;;;;4.88;1.65;;;;;;;;;;5048753;28;20030;-74
2022/05/08 12:21:54;;;;;;;13.48;2.22;;;;;;;;;;5050709;28;20592;-74
2022/05/08 12:24:21;;;;;;;7.65;1.65;;;;;;;;;;5045744;28;20026;-74
2022/05/08 12:26:47;;;;;;;8.82;1.73;;;;;;;;;;5032523;28;20038;-74
2022/05/08 12:29:23;;;;;;;9.57;1.80;;;;;;;;;;5039324;28;20037;-74
2022/05/08 12:31:51;;;;;;;6.32;1.77;;;;;;;;;;5048720;28;20039;-74
2022/05/08 12:34:18;;;;;;;10.85;2.00;;;;;;;;;;5042528;28;20462;-74
2022/05/08 12:36:44;;;;;;;10.90;2.25;;;;;;;;;;5050795;28;20029;-74
2022/05/08 12:39:10;;;;;;;5.90;1.60;;;;;;;;;;5039568;28;20040;-73
2022/05/08 12:41:37;;;;;;;13.75;2.20;;;;;;;;;;5048502;28;20053;-73
2022/05/08 12:44:04;;;;;;;10.40;2.03;;;;;;;;;;5046194;28;20044;-74
2022/05/08 12:46:30;;;;;;;7.40;1.83;;;;;;;;;;5050734;28;20033;-74
2022/05/08 12:49:02;;;;;;;10.32;1.58;;;;;;;;;;5049257;28;20045;-73
2022/05/08 12:51:32;;;;;;;9.18;1.42;;;;;;;;;;5049064;28;20039;-74
2022/05/08 12:53:58;;;;;;;6.38;2.00;;;;;;;;;;5050588;28;20489;-74
2022/05/08 12:56:25;;;;;;;11.95;1.95;;;;;;;;;;5046071;28;20036;-74
2022/05/08 13:01:36;;;;;;;7.40;1.45;;;;;;;;;;5051443;28;20067;-74
2022/05/08 13:04:03;;;;;;;8.30;2.40;;;;;;;;;;5033223;28;20030;-74
2022/05/08 13:06:29;;;;;;;7.78;1.35;;;;;;;;;;5037668;28;20029;-74
2022/05/08 13:08:55;;;;;;;7.75;1.50;;;;;;;;;;5051489;28;20079;-75
2022/05/08 13:11:22;;;;;;;10.55;1.77;;;;;;;;;;5030274;28;20059;-74
2022/05/08 13:13:48;;;;;;;7.25;1.75;;;;;;;;;;5051420;28;20086;-74
2022/05/08 13:16:15;;;;;;;6.13;1.92;;;;;;;;;;5047427;28;20032;-74
2022/05/08 13:18:42;;;;;;;6.78;1.42;;;;;;;;;;5050094;28;20029;-73
2022/05/08 13:21:08;;;;;;;8.30;2.00;;;;;;;;;;5051234;28;20377;-74
2022/05/08 13:23:34;;;;;;;10.15;2.15;;;;;;;;;;5049218;28;20033;-74
2022/05/08 13:26:00;;;;;;;10.23;1.65;;;;;;;;;;5048619;28;20061;-75
2022/05/08 13:28:29;;;;;;;8.70;1.58;;;;;;;;;;5029903;28;20034;-74
2022/05/08 13:30:56;;;;;;;12.77;1.60;;;;;;;;;;5037784;28;20017;-74
2022/05/08 13:33:24;;;;;;;8.95;1.70;;;;;;;;;;5042255;28;20033;-74
2022/05/08 13:35:50;;;;;;;6.75;1.80;;;;;;;;;;5050020;28;20036;-74
2022/05/08 13:38:18;;;;;;;6.97;2.45;;;;;;;;;;5041343;28;20033;-74
2022/05/08 13:40:44;;;;;;;10.68;3.05;;;;;;;;;;5029662;28;20060;-75
2022/05/08 13:43:10;;;;;;;10.52;1.80;;;;;;;;;;5045514;28;20086;-75
2022/05/08 13:45:37;;;;;;;5.60;1.48;;;;;;;;;;5029913;28;20059;-74
2022/05/08 13:48:03;;;;;;;7.53;1.65;;;;;;;;;;5046305;28;20033;-74
2022/05/08 13:50:29;;;;;;;9.40;3.65;;;;;;;;;;5044554;28;21998;-74
2022/05/08 13:52:55;;;;;;;9.00;2.60;;;;;;;;;;5045023;28;20029;-74
2022/05/08 13:55:21;;;;;;;10.63;1.88;;;;;;;;;;5027588;28;21770;-78
2022/05/08 13:57:49;;;;;;;9.50;1.50;;;;;;;;;;5022848;28;20038;-77
2022/05/08 14:00:15;;;;;;;13.75;1.83;;;;;;;;;;5044543;28;20033;-77
2022/05/08 14:02:44;;;;;;;11.05;1.58;;;;;;;;;;5042661;28;20115;-76
2022/05/08 14:05:11;;;;;;;6.93;1.83;;;;;;;;;;5046864;28;20020;-76
2022/05/08 14:07:37;;;;;;;9.52;1.73;;;;;;;;;;5050692;28;20045;-77
2022/05/08 14:10:04;;;;;;;14.90;2.03;;;;;;;;;;5046162;28;20053;-77
2022/05/08 14:12:30;;;;;;;11.30;2.00;;;;;;;;;;5037251;28;20029;-77
2022/05/08 14:14:56;;;;;;;8.45;2.10;;;;;;;;;;5027329;28;20112;-78
2022/05/08 14:17:22;;;;;;;11.35;2.33;;;;;;;;;;5012263;28;20053;-77
2022/05/08 14:19:48;;;;;;;9.77;1.90;;;;;;;;;;5028516;28;20045;-77
2022/05/08 14:22:15;;;;;;;17.33;5.50;;;;;;;;;;5025839;28;20033;-77
2022/05/08 14:24:41;;;;;;;12.88;3.72;;;;;;;;;;5030225;28;20371;-76
2022/05/08 14:27:08;;;;;;;7.07;1.50;;;;;;;;;;5033771;28;20025;-76
2022/05/08 14:29:35;;;;;;;7.68;1.92;;;;;;;;;;5037875;28;20144;-76
2022/05/08 14:37:30;;;;;;;10.40;1.77;;;;;;;;;;5031924;28;20068;-75
2022/05/08 14:39:56;;;;;;;6.07;1.42;;;;;;;;;;5012717;28;20404;-75
2022/05/08 14:42:23;;;;;;;8.73;2.00;;;;;;;;;;5014025;28;20466;-75
2022/05/08 14:44:49;;;;;;;5.65;1.30;;;;;;;;;;5025112;28;20528;-75
2022/05/08 14:47:18;;;;;;;10.25;2.08;;;;;;;;;;5022809;28;20026;-75
2022/05/08 14:49:44;;;;;;;10.95;1.63;;;;;;;;;;5032023;28;20037;-75
2022/05/08 14:52:11;;;;;;;13.10;2.58;;;;;;;;;;5033131;28;20366;-75
2022/05/08 14:54:37;;;;;;;9.88;1.80;;;;;;;;;;5033437;28;20041;-75
2022/05/08 14:57:03;;;;;;;12.43;2.67;;;;;;;;;;5025075;28;20030;-77
2022/05/08 14:59:29;;;;;;;11.65;4.40;;;;;;;;;;5019159;28;20038;-73
2022/05/08 15:01:55;;;;;;;9.60;2.03;;;;;;;;;;5035796;28;20037;-75
2022/05/08 15:04:21;;;;;;;13.80;2.00;;;;;;;;;;5032000;28;20076;-75
2022/05/08 15:06:47;;;;;;;8.00;1.23;;;;;;;;;;5000680;28;20038;-75
2022/05/08 15:09:13;;;;;;;7.97;1.65;;;;;;;;;;5026996;28;20041;-75
2022/05/08 15:11:39;;;;;;;6.57;1.75;;;;;;;;;;5015546;28;20064;-75
2022/05/08 15:14:06;;;;;;;6.25;1.52;;;;;;;;;;5051346;28;20540;-75
2022/05/08 15:16:32;;;;;;;13.05;2.20;;;;;;;;;;5049047;28;20039;-75